Clackamas, OR

5:33 PM PDT on May 27, 2017 (GMT -0700)
Clackamas | | Change Station

Elev 330 ft 45.43 °N, 122.55 °W | Updated 3 seconds ago

Clear
Clear
93.0 °F
Feels Like 90 °F
N
0.0
Wind Variable Wind from SW

Today
High -- | Low -- °F
--% Chance of Precip.
Yesterday
High -- | Low -- °F
Precip. -- in
Pressure 29.98 in
Visibility 10.0 miles
Clouds Clear
Heat Index 90 °F
Dew Point 49 °F
Humidity 22%
Rainfall 0.00 in
Snow Depth Not available.
5:28 AM 8:47 PM
Waxing Crescent, 7% visible
METAR KTTD 272353Z AUTO 29004KT 10SM CLR 31/09 A2998 RMK AO2 SLP152 T03110094 10317 20222 56011
Pressure 29.98 in
Visibility 10.0 miles
Clouds Clear
Heat Index 90 °F
Dew Point 49 °F
Humidity 22%
Rainfall 0.00 in
Snow Depth Not available.
5:28 AM 8:47 PM
Waxing Crescent, 7% visible
METAR KTTD 272353Z AUTO 29004KT 10SM CLR 31/09 A2998 RMK AO2 SLP152 T03110094 10317 20222 56011

Get Severe Weather Alerts

Thanks for signing up!

Be on the lookout for a verification email in your inbox.

You'll start receiving the daily forecast at 6 AM.

×

10-Day Weather Forecast

Almanac

Astronomy

May. 27, 2017 Rise Set
Actual Time
Civil Twilight
Nautical Twilight
Astronomical Twilight
Moon
Length of Visible Light
Length of Day
Tomorrow will be .
, % of the Moon is Illuminated

Today's Extremes

State Highs State Lows

Community

WunderPhotos

Category 6

Welcome to Category 6. This is the collective home for Weather Underground's featured writeups by Dr. Jeff Masters (right), Bob Henson (left), Chris Burt, and other regular contributors.

Nearby

Air Quality

  Air Quality AQ Index Pollutant
Not available.

Snow Depth

Station Depth Elevation

Earthquake Activity

City Distance Mag. Time & Date
Minimum magnitude displayed is 2.5.

Coastal Water Temperatures

Place Temperature

Stations

Nearby Weather Stations

Station Location Temp. Windchill Dew Point Humidity Wind Precip. Elev Updated Type
                   

Watches & Warnings

There are currently no watches in effect.